Time;durP1;ratioP1;P1;durP2;ratioP2;P2;SDS_P1;SDS_P2;PMS_P1;PMS_P2;Temp;Humidity;BMP_temperature;BMP_pressure;BME280_temperature;BME280_humidity;BME280_pressure;Samples;Min_cycle;Max_cycle;Signal;HPM_P1;HPM_P2
2022/11/20 00:01:33;;;;;;;26.92;16.58;;;;;;;;;;5089835;28;20418;-70
2022/11/20 00:04:00;;;;;;;33.97;16.25;;;;;;;;;;5087935;28;20425;-70
2022/11/20 00:06:26;;;;;;;26.27;16.30;;;;;;;;;;5085176;28;20493;-70
2022/11/20 00:08:55;;;;;;;27.30;16.58;;;;;;;;;;5097843;28;20418;-69
2022/11/20 00:11:22;;;;;;;26.77;15.85;;;;;;;;;;5085569;28;20453;-69
2022/11/20 00:13:49;;;;;;;24.63;14.98;;;;;;;;;;5083586;28;20420;-69
2022/11/20 00:16:17;;;;;;;22.83;14.37;;;;;;;;;;5080560;28;20520;-70
2022/11/20 00:18:43;;;;;;;23.53;15.17;;;;;;;;;;5083335;28;20501;-70
2022/11/20 00:21:23;;;;;;;23.23;15.07;;;;;;;;;;5086203;28;20426;-70
2022/11/20 00:23:49;;;;;;;23.52;15.68;;;;;;;;;;5082023;28;20417;-70
2022/11/20 00:26:16;;;;;;;24.27;15.35;;;;;;;;;;5083970;28;20421;-70
2022/11/20 00:28:43;;;;;;;24.80;15.32;;;;;;;;;;5084749;28;20425;-70
2022/11/20 00:31:11;;;;;;;24.30;15.32;;;;;;;;;;5091359;28;20922;-70
2022/11/20 00:33:37;;;;;;;23.75;14.60;;;;;;;;;;5077330;28;20414;-71
2022/11/20 00:36:07;;;;;;;24.92;14.50;;;;;;;;;;5081827;28;20480;-69
2022/11/20 00:38:33;;;;;;;25.17;15.35;;;;;;;;;;5104877;28;20523;-70
2022/11/20 00:41:00;;;;;;;24.98;15.90;;;;;;;;;;5078794;28;20758;-71
2022/11/20 00:43:27;;;;;;;24.05;15.25;;;;;;;;;;5086082;28;20485;-69
2022/11/20 00:45:57;;;;;;;24.27;15.15;;;;;;;;;;5074540;28;20418;-70
2022/11/20 00:48:23;;;;;;;25.98;16.23;;;;;;;;;;5105235;28;20397;-69
2022/11/20 00:50:49;;;;;;;26.03;16.30;;;;;;;;;;5055520;28;20417;-69
2022/11/20 00:53:15;;;;;;;24.70;15.90;;;;;;;;;;5068538;28;20408;-70
2022/11/20 00:55:41;;;;;;;23.60;15.65;;;;;;;;;;5085999;28;20493;-70
2022/11/20 00:58:07;;;;;;;26.08;15.82;;;;;;;;;;5086400;28;20606;-70
2022/11/20 01:00:33;;;;;;;22.02;14.55;;;;;;;;;;5081890;28;20414;-70
2022/11/20 01:03:00;;;;;;;23.10;14.65;;;;;;;;;;5072606;28;20460;-70
2022/11/20 01:05:26;;;;;;;21.98;14.55;;;;;;;;;;5088718;28;20448;-70
2022/11/20 01:07:52;;;;;;;23.35;14.13;;;;;;;;;;5082574;28;20424;-70
2022/11/20 01:10:18;;;;;;;24.52;14.55;;;;;;;;;;5092894;28;20397;-71
2022/11/20 01:13:36;;;;;;;23.40;15.23;;;;;;;;;;5084803;28;20446;-70
2022/11/20 01:15:30;;;;;;;25.02;15.88;;;;;;;;;;5078057;28;20449;-70
2022/11/20 01:17:56;;;;;;;23.07;15.33;;;;;;;;;;5091976;28;20418;-70
2022/11/20 01:20:22;;;;;;;25.10;15.40;;;;;;;;;;5074302;28;20422;-70
2022/11/20 01:22:48;;;;;;;25.98;16.48;;;;;;;;;;5067405;28;20402;-70
2022/11/20 01:25:14;;;;;;;26.38;16.33;;;;;;;;;;5075897;28;20591;-70
2022/11/20 01:27:40;;;;;;;25.20;16.02;;;;;;;;;;5088055;28;20569;-70
2022/11/20 01:30:07;;;;;;;31.20;15.88;;;;;;;;;;5084783;28;20426;-70
2022/11/20 01:32:33;;;;;;;36.47;20.83;;;;;;;;;;5068224;28;20918;-70
2022/11/20 01:34:59;;;;;;;32.83;19.70;;;;;;;;;;5075221;28;20424;-70
2022/11/20 01:37:25;;;;;;;33.15;19.20;;;;;;;;;;5082036;28;21000;-77
2022/11/20 01:39:51;;;;;;;34.53;19.45;;;;;;;;;;5088322;28;20407;-78
2022/11/20 01:45:02;;;;;;;28.00;17.02;;;;;;;;;;5079338;28;20427;-77
2022/11/20 01:47:28;;;;;;;24.95;16.00;;;;;;;;;;5075245;28;20503;-78
2022/11/20 01:50:00;;;;;;;25.20;14.98;;;;;;;;;;5083202;28;20953;-70
2022/11/20 01:52:38;;;;;;;24.95;15.05;;;;;;;;;;5075246;28;20512;-70
2022/11/20 01:55:07;;;;;;;25.10;15.52;;;;;;;;;;5081114;28;20772;-71
2022/11/20 01:57:35;;;;;;;22.85;15.43;;;;;;;;;;5072830;28;20552;-70
2022/11/20 02:00:06;;;;;;;24.83;15.13;;;;;;;;;;5064564;28;20467;-71
2022/11/20 02:02:33;;;;;;;23.00;15.00;;;;;;;;;;5075050;28;20414;-71
2022/11/20 02:05:01;;;;;;;25.15;14.13;;;;;;;;;;5081331;28;20931;-71
2022/11/20 02:07:28;;;;;;;22.27;14.27;;;;;;;;;;5083580;28;20471;-71
2022/11/20 02:09:54;;;;;;;21.15;13.95;;;;;;;;;;5056544;28;20417;-71
2022/11/20 02:15:05;;;;;;;21.92;14.40;;;;;;;;;;5079007;28;20929;-71
2022/11/20 02:17:31;;;;;;;22.30;13.95;;;;;;;;;;5081689;28;20415;-71
2022/11/20 02:19:57;;;;;;;21.70;13.85;;;;;;;;;;5074727;28;20505;-71
2022/11/20 02:22:31;;;;;;;22.80;13.80;;;;;;;;;;5071434;28;20504;-71
2022/11/20 02:24:59;;;;;;;21.73;13.80;;;;;;;;;;5081497;28;20872;-71
2022/11/20 02:27:26;;;;;;;22.00;13.55;;;;;;;;;;5078872;28;20759;-71
2022/11/20 02:29:53;;;;;;;22.15;14.02;;;;;;;;;;5074737;28;20453;-71
2022/11/20 02:32:20;;;;;;;23.83;16.30;;;;;;;;;;5076987;28;20769;-70
2022/11/20 02:34:46;;;;;;;20.55;14.10;;;;;;;;;;5082514;28;20953;-70
2022/11/20 02:37:13;;;;;;;20.80;13.60;;;;;;;;;;5064878;28;20421;-70
2022/11/20 02:39:40;;;;;;;22.05;14.35;;;;;;;;;;5061208;28;20429;-70
2022/11/20 02:42:06;;;;;;;20.47;13.20;;;;;;;;;;5054154;28;20804;-70
2022/11/20 02:44:32;;;;;;;24.42;15.98;;;;;;;;;;5054934;28;20508;-69
2022/11/20 02:46:59;;;;;;;21.83;14.50;;;;;;;;;;5064269;28;20706;-70
2022/11/20 02:49:25;;;;;;;21.57;14.17;;;;;;;;;;5056188;28;20408;-69
2022/11/20 02:51:51;;;;;;;21.00;13.57;;;;;;;;;;5049320;28;20941;-70
2022/11/20 02:54:17;;;;;;;21.50;13.20;;;;;;;;;;5025923;28;20433;-70
2022/11/20 02:56:44;;;;;;;19.20;12.73;;;;;;;;;;5049350;28;20978;-69
2022/11/20 02:59:10;;;;;;;20.33;13.18;;;;;;;;;;5045764;28;20449;-69
2022/11/20 03:01:36;;;;;;;20.55;13.43;;;;;;;;;;5058350;28;20411;-69
2022/11/20 03:04:02;;;;;;;21.15;13.70;;;;;;;;;;5054555;28;20421;-71
2022/11/20 03:06:28;;;;;;;21.63;14.07;;;;;;;;;;5054548;28;20863;-70
2022/11/20 03:08:54;;;;;;;19.77;13.20;;;;;;;;;;5040088;28;20468;-70
2022/11/20 03:11:21;;;;;;;21.15;13.70;;;;;;;;;;5048254;28;20597;-71
2022/11/20 03:13:47;;;;;;;20.77;13.75;;;;;;;;;;5059910;28;20430;-70
2022/11/20 03:16:14;;;;;;;20.77;13.43;;;;;;;;;;5039377;28;20404;-70
2022/11/20 03:18:41;;;;;;;21.08;13.73;;;;;;;;;;5059055;28;20929;-70
2022/11/20 03:21:07;;;;;;;20.55;14.18;;;;;;;;;;5069061;28;20451;-71
2022/11/20 03:23:34;;;;;;;20.67;13.93;;;;;;;;;;5040532;28;20468;-71
2022/11/20 03:26:10;;;;;;;21.20;14.13;;;;;;;;;;5069021;28;20916;-69
2022/11/20 03:28:36;;;;;;;21.63;14.38;;;;;;;;;;5061385;28;20405;-69
2022/11/20 03:31:13;;;;;;;21.00;14.23;;;;;;;;;;5048147;28;20930;-69
2022/11/20 03:33:39;;;;;;;20.23;13.97;;;;;;;;;;5044947;28;20452;-69
2022/11/20 03:36:07;;;;;;;21.38;14.70;;;;;;;;;;5059745;28;20428;-69
2022/11/20 03:38:33;;;;;;;20.38;14.00;;;;;;;;;;5050980;28;20423;-70
2022/11/20 03:41:03;;;;;;;20.20;14.02;;;;;;;;;;5070816;28;20557;-71
2022/11/20 03:43:29;;;;;;;20.95;13.75;;;;;;;;;;5061068;28;20428;-71
2022/11/20 03:45:55;;;;;;;22.80;14.23;;;;;;;;;;5069557;28;20440;-70
2022/11/20 03:48:21;;;;;;;20.08;13.45;;;;;;;;;;5047632;28;20514;-70
2022/11/20 03:50:48;;;;;;;21.63;14.02;;;;;;;;;;5045784;28;20421;-70
2022/11/20 03:53:14;;;;;;;22.50;13.90;;;;;;;;;;5055687;28;20461;-70
2022/11/20 03:55:40;;;;;;;22.35;14.40;;;;;;;;;;5059540;28;20764;-70
2022/11/20 03:58:06;;;;;;;20.25;13.82;;;;;;;;;;5063090;28;20954;-70
2022/11/20 04:00:32;;;;;;;19.83;13.77;;;;;;;;;;5042735;28;20457;-70
2022/11/20 04:02:59;;;;;;;22.55;14.30;;;;;;;;;;5059060;28;20953;-71
2022/11/20 04:05:25;;;;;;;22.38;14.68;;;;;;;;;;5064831;28;20424;-71
2022/11/20 04:07:51;;;;;;;24.48;16.08;;;;;;;;;;5059212;28;20424;-69
2022/11/20 04:10:17;;;;;;;23.08;15.23;;;;;;;;;;5057874;28;20424;-71
2022/11/20 04:12:43;;;;;;;22.88;15.05;;;;;;;;;;5058774;28;20458;-70
2022/11/20 04:15:10;;;;;;;20.77;14.68;;;;;;;;;;5038568;28;20425;-70
2022/11/20 04:17:36;;;;;;;22.90;14.52;;;;;;;;;;5064659;28;20814;-70
2022/11/20 04:20:02;;;;;;;21.70;14.50;;;;;;;;;;5067611;28;20496;-70
2022/11/20 04:22:28;;;;;;;19.55;13.65;;;;;;;;;;5058757;28;20938;-71
2022/11/20 04:24:54;;;;;;;18.83;13.15;;;;;;;;;;5061097;28;20752;-71
2022/11/20 04:27:20;;;;;;;17.73;12.07;;;;;;;;;;5062605;28;20435;-71
2022/11/20 04:29:46;;;;;;;20.02;12.88;;;;;;;;;;5042831;28;20492;-71
2022/11/20 04:32:12;;;;;;;16.73;11.07;;;;;;;;;;5042276;28;20405;-71
2022/11/20 04:34:38;;;;;;;16.65;10.35;;;;;;;;;;5064062;28;20428;-71
2022/11/20 04:37:05;;;;;;;14.52;10.05;;;;;;;;;;5042124;28;20452;-71
2022/11/20 04:39:31;;;;;;;14.95;10.00;;;;;;;;;;5055659;28;20423;-71
2022/11/20 04:44:41;;;;;;;16.73;11.20;;;;;;;;;;5083656;28;20414;-71
2022/11/20 04:47:07;;;;;;;16.13;10.77;;;;;;;;;;5075499;28;20410;-71
2022/11/20 04:49:33;;;;;;;14.43;10.43;;;;;;;;;;5083970;28;20427;-69
2022/11/20 04:51:59;;;;;;;15.35;10.23;;;;;;;;;;5079576;28;20562;-70
2022/11/20 04:54:25;;;;;;;16.98;10.90;;;;;;;;;;5081381;28;20457;-71
2022/11/20 04:56:51;;;;;;;15.43;10.33;;;;;;;;;;5085024;28;20420;-71
2022/11/20 04:59:18;;;;;;;14.77;10.13;;;;;;;;;;5074202;28;20402;-70
2022/11/20 05:01:44;;;;;;;14.32;9.48;;;;;;;;;;5091776;28;20420;-71
2022/11/20 05:04:10;;;;;;;13.18;9.32;;;;;;;;;;5079787;28;20457;-71
2022/11/20 05:06:36;;;;;;;15.93;10.50;;;;;;;;;;5067458;28;20753;-70
2022/11/20 05:09:02;;;;;;;14.93;9.98;;;;;;;;;;5060304;28;20424;-71
2022/11/20 05:11:31;;;;;;;15.77;10.15;;;;;;;;;;5085841;28;20918;-70
2022/11/20 05:13:59;;;;;;;14.10;9.93;;;;;;;;;;5084045;28;20417;-70
2022/11/20 05:16:25;;;;;;;14.43;9.70;;;;;;;;;;5079977;28;20909;-71
2022/11/20 05:18:52;;;;;;;15.87;9.83;;;;;;;;;;5083562;28;20766;-71
2022/11/20 05:21:18;;;;;;;17.05;10.35;;;;;;;;;;5088156;28;20428;-71
2022/11/20 05:23:45;;;;;;;17.17;10.50;;;;;;;;;;5083941;28;20401;-71
2022/11/20 05:26:16;;;;;;;22.58;14.35;;;;;;;;;;5086486;28;20427;-70
2022/11/20 05:28:42;;;;;;;21.52;13.90;;;;;;;;;;5085142;28;20420;-71
2022/11/20 05:31:09;;;;;;;21.70;14.68;;;;;;;;;;5089058;28;20504;-71
2022/11/20 05:33:36;;;;;;;37.08;21.13;;;;;;;;;;5082319;28;20420;-71
2022/11/20 05:36:03;;;;;;;28.48;17.08;;;;;;;;;;5082802;28;20420;-70
2022/11/20 05:38:29;;;;;;;22.13;14.05;;;;;;;;;;5089479;28;20916;-70
2022/11/20 05:40:55;;;;;;;20.38;13.88;;;;;;;;;;5087132;28;20504;-70
2022/11/20 05:43:21;;;;;;;17.20;11.73;;;;;;;;;;5088045;28;20418;-70
2022/11/20 05:45:54;;;;;;;17.95;12.10;;;;;;;;;;5079102;28;20422;-70
2022/11/20 05:48:20;;;;;;;18.13;11.70;;;;;;;;;;5070085;28;20444;-71
2022/11/20 05:50:46;;;;;;;17.40;11.63;;;;;;;;;;5074819;28;20757;-71
2022/11/20 05:53:13;;;;;;;17.92;12.10;;;;;;;;;;5084330;28;20432;-71
2022/11/20 05:55:39;;;;;;;17.85;11.75;;;;;;;;;;5062551;28;20426;-71
2022/11/20 05:58:05;;;;;;;18.77;11.68;;;;;;;;;;5061380;28;20477;-71
2022/11/20 06:00:31;;;;;;;22.48;12.05;;;;;;;;;;5083683;28;20406;-70
2022/11/20 06:02:57;;;;;;;19.33;11.85;;;;;;;;;;5065587;28;20414;-70
2022/11/20 06:05:23;;;;;;;18.97;12.33;;;;;;;;;;5077285;28;20513;-71
2022/11/20 06:07:49;;;;;;;18.48;12.32;;;;;;;;;;5080682;28;20424;-71
2022/11/20 06:10:15;;;;;;;18.75;12.35;;;;;;;;;;5065737;28;20405;-70
2022/11/20 06:12:41;;;;;;;20.60;12.15;;;;;;;;;;5087520;28;20416;-70
2022/11/20 06:15:07;;;;;;;18.83;12.68;;;;;;;;;;5088849;28;20435;-71
2022/11/20 06:17:33;;;;;;;19.10;12.63;;;;;;;;;;5068449;28;20516;-71
2022/11/20 06:19:59;;;;;;;23.73;16.10;;;;;;;;;;5075120;28;20418;-71
2022/11/20 06:22:25;;;;;;;18.02;12.68;;;;;;;;;;5099027;28;20771;-71
2022/11/20 06:24:51;;;;;;;22.38;15.15;;;;;;;;;;5058650;28;20524;-71
2022/11/20 06:27:17;;;;;;;21.60;15.35;;;;;;;;;;5051601;28;20417;-70
2022/11/20 06:29:44;;;;;;;18.60;12.73;;;;;;;;;;5084454;28;20950;-70
2022/11/20 06:32:10;;;;;;;17.73;11.60;;;;;;;;;;5080017;28;20420;-70
2022/11/20 06:34:36;;;;;;;26.50;16.65;;;;;;;;;;5069991;28;20817;-70
2022/11/20 06:37:02;;;;;;;16.95;11.38;;;;;;;;;;5076823;28;20783;-70
2022/11/20 06:39:28;;;;;;;17.27;11.45;;;;;;;;;;5070248;28;20512;-71
2022/11/20 06:41:54;;;;;;;20.85;14.00;;;;;;;;;;5059438;28;20422;-70
2022/11/20 06:44:20;;;;;;;17.83;11.73;;;;;;;;;;5035083;28;20423;-70
2022/11/20 06:46:46;;;;;;;17.38;11.65;;;;;;;;;;5046405;28;20471;-70
2022/11/20 06:49:12;;;;;;;16.67;10.80;;;;;;;;;;5025667;28;21004;-78
2022/11/20 06:51:38;;;;;;;17.48;11.95;;;;;;;;;;5055350;28;20459;-79
2022/11/20 06:54:04;;;;;;;17.90;11.35;;;;;;;;;;5035712;28;20824;-78
2022/11/20 06:56:30;;;;;;;16.65;11.63;;;;;;;;;;5063543;28;20913;-78
2022/11/20 06:58:59;;;;;;;16.13;11.20;;;;;;;;;;5057833;28;20459;-79
2022/11/20 07:01:25;;;;;;;19.77;12.90;;;;;;;;;;5061625;28;20417;-79
2022/11/20 07:03:51;;;;;;;17.35;11.18;;;;;;;;;;5038707;28;20454;-78
2022/11/20 07:06:17;;;;;;;14.85;10.50;;;;;;;;;;5041723;28;20508;-79
2022/11/20 07:08:43;;;;;;;16.15;11.27;;;;;;;;;;5048099;28;20524;-78
2022/11/20 07:11:12;;;;;;;16.17;11.00;;;;;;;;;;5062917;28;20508;-79
2022/11/20 07:13:38;;;;;;;16.05;10.65;;;;;;;;;;5054585;28;20425;-79
2022/11/20 07:16:06;;;;;;;17.00;13.18;;;;;;;;;;5063768;28;20487;-78
2022/11/20 07:18:32;;;;;;;15.02;10.77;;;;;;;;;;5066064;28;21005;-78
2022/11/20 07:21:06;;;;;;;17.30;10.43;;;;;;;;;;5059128;28;20457;-78
2022/11/20 07:23:32;;;;;;;17.02;10.38;;;;;;;;;;5063248;28;20424;-78
2022/11/20 07:25:58;;;;;;;13.90;10.33;;;;;;;;;;5061141;28;20417;-78
2022/11/20 07:28:24;;;;;;;16.23;11.07;;;;;;;;;;5053991;28;20473;-79
2022/11/20 07:30:53;;;;;;;15.70;10.60;;;;;;;;;;5059294;28;20743;-79
2022/11/20 07:33:20;;;;;;;14.97;10.67;;;;;;;;;;5056935;28;20427;-78
2022/11/20 07:35:46;;;;;;;15.00;9.77;;;;;;;;;;5056824;28;20464;-79
2022/11/20 07:38:12;;;;;;;15.88;10.32;;;;;;;;;;5080517;28;20429;-79
2022/11/20 07:40:39;;;;;;;15.93;10.65;;;;;;;;;;5089918;28;20459;-78
2022/11/20 07:43:05;;;;;;;16.77;11.25;;;;;;;;;;5086956;28;20413;-77
2022/11/20 07:45:31;;;;;;;17.70;11.85;;;;;;;;;;5084023;28;20416;-78
2022/11/20 07:47:57;;;;;;;16.38;11.23;;;;;;;;;;5082000;28;20485;-79
2022/11/20 07:50:23;;;;;;;16.63;11.57;;;;;;;;;;5073040;28;20545;-78
2022/11/20 07:52:49;;;;;;;17.50;11.65;;;;;;;;;;5076016;28;20506;-77
2022/11/20 07:55:15;;;;;;;18.58;12.88;;;;;;;;;;5082115;28;20425;-78
2022/11/20 07:57:41;;;;;;;19.48;13.32;;;;;;;;;;5060472;28;20487;-79
2022/11/20 08:00:09;;;;;;;20.97;13.03;;;;;;;;;;5071802;28;20434;-79
2022/11/20 08:02:37;;;;;;;16.80;12.00;;;;;;;;;;5093504;28;20408;-78
2022/11/20 08:05:03;;;;;;;18.90;11.90;;;;;;;;;;5082242;28;20886;-78
2022/11/20 08:07:29;;;;;;;19.98;11.57;;;;;;;;;;5089796;28;20416;-79
2022/11/20 08:09:55;;;;;;;17.13;11.30;;;;;;;;;;5086477;28;20775;-78
2022/11/20 08:15:06;;;;;;;17.87;12.27;;;;;;;;;;5083453;28;20492;-79
2022/11/20 08:17:32;;;;;;;17.92;11.07;;;;;;;;;;5083743;28;20457;-80
2022/11/20 08:19:59;;;;;;;18.98;11.65;;;;;;;;;;5072132;28;20735;-78
2022/11/20 08:22:25;;;;;;;15.27;10.75;;;;;;;;;;5088211;28;20414;-78
2022/11/20 08:24:51;;;;;;;16.83;11.13;;;;;;;;;;5083787;28;20452;-78
2022/11/20 08:27:17;;;;;;;16.05;10.20;;;;;;;;;;5047623;28;20816;-79
2022/11/20 08:29:43;;;;;;;16.60;11.10;;;;;;;;;;5079378;28;20421;-79
2022/11/20 08:32:09;;;;;;;17.17;10.90;;;;;;;;;;5089689;28;20412;-80
2022/11/20 08:34:35;;;;;;;15.97;11.17;;;;;;;;;;5066896;28;20794;-79
2022/11/20 08:37:02;;;;;;;16.48;10.85;;;;;;;;;;5075103;28;20418;-80
2022/11/20 08:39:28;;;;;;;14.20;9.73;;;;;;;;;;5085958;28;20621;-80
2022/11/20 08:41:54;;;;;;;13.77;9.82;;;;;;;;;;5080433;28;20435;-79
2022/11/20 08:44:21;;;;;;;15.05;10.02;;;;;;;;;;5084486;28;20418;-77
2022/11/20 08:46:47;;;;;;;15.07;10.05;;;;;;;;;;5076405;28;20556;-79
2022/11/20 08:49:13;;;;;;;14.43;9.83;;;;;;;;;;5077402;28;20504;-80
2022/11/20 08:51:40;;;;;;;15.63;10.10;;;;;;;;;;5087872;28;20471;-79
2022/11/20 08:54:06;;;;;;;15.05;10.70;;;;;;;;;;5081027;28;20498;-79
2022/11/20 08:56:32;;;;;;;17.58;12.27;;;;;;;;;;5084784;28;20400;-79
2022/11/20 08:58:59;;;;;;;15.90;9.93;;;;;;;;;;5078958;28;20416;-81
2022/11/20 09:01:25;;;;;;;15.10;10.65;;;;;;;;;;5082818;28;20867;-79
2022/11/20 09:03:52;;;;;;;15.57;10.45;;;;;;;;;;5082304;28;20418;-79
2022/11/20 09:06:18;;;;;;;16.08;10.27;;;;;;;;;;5066487;28;20454;-80
2022/11/20 09:08:45;;;;;;;16.10;11.13;;;;;;;;;;5082938;28;20482;-80
2022/11/20 09:11:11;;;;;;;16.70;11.15;;;;;;;;;;5086934;28;20420;-79
2022/11/20 09:13:37;;;;;;;17.00;11.40;;;;;;;;;;5071764;28;20794;-79
2022/11/20 09:16:07;;;;;;;15.50;9.93;;;;;;;;;;5077214;28;20426;-80
2022/11/20 09:18:35;;;;;;;16.03;11.17;;;;;;;;;;5077124;28;20433;-80
2022/11/20 09:21:03;;;;;;;15.60;10.45;;;;;;;;;;5085428;28;20421;-73
2022/11/20 09:23:32;;;;;;;16.98;10.68;;;;;;;;;;5075663;28;20509;-76
2022/11/20 09:25:59;;;;;;;16.40;10.50;;;;;;;;;;5069801;28;20412;-75
2022/11/20 09:28:28;;;;;;;16.45;10.68;;;;;;;;;;5086443;28;20504;-75
2022/11/20 09:30:54;;;;;;;20.67;13.52;;;;;;;;;;5090858;28;20419;-74
2022/11/20 09:33:20;;;;;;;19.17;11.88;;;;;;;;;;5084120;28;20415;-75
2022/11/20 09:35:46;;;;;;;16.70;10.85;;;;;;;;;;5080943;28;20466;-75
2022/11/20 09:38:14;;;;;;;18.13;11.32;;;;;;;;;;5082255;28;20420;-76
2022/11/20 09:40:49;;;;;;;14.93;10.15;;;;;;;;;;5082088;28;20432;-75
2022/11/20 09:43:34;;;;;;;14.73;10.32;;;;;;;;;;5085826;28;20402;-75
2022/11/20 09:46:03;;;;;;;17.55;10.80;;;;;;;;;;5073142;28;20505;-75
2022/11/20 09:48:38;;;;;;;16.05;11.00;;;;;;;;;;5062575;28;20433;-75
2022/11/20 09:51:04;;;;;;;15.63;10.70;;;;;;;;;;5078568;28;20476;-80
2022/11/20 09:53:43;;;;;;;14.82;10.50;;;;;;;;;;5061133;28;20452;-79
2022/11/20 09:56:10;;;;;;;16.63;10.70;;;;;;;;;;5103138;27;20528;-80
2022/11/20 09:58:48;;;;;;;16.87;10.73;;;;;;;;;;5092255;28;20425;-80
2022/11/20 10:01:18;;;;;;;15.48;10.77;;;;;;;;;;5076827;28;20429;-80
2022/11/20 10:03:54;;;;;;;17.98;12.43;;;;;;;;;;5073908;28;20421;-80
2022/11/20 10:06:24;;;;;;;16.33;11.57;;;;;;;;;;5059379;28;20770;-80
2022/11/20 10:08:59;;;;;;;20.40;14.57;;;;;;;;;;5097058;28;20983;-79
2022/11/20 10:11:31;;;;;;;20.23;13.25;;;;;;;;;;5082379;28;20455;-79
2022/11/20 10:14:09;;;;;;;16.92;11.75;;;;;;;;;;5085815;28;20501;-79
2022/11/20 10:16:51;;;;;;;18.42;11.15;;;;;;;;;;5080674;28;20765;-80
2022/11/20 10:19:36;;;;;;;18.33;11.52;;;;;;;;;;5082670;28;20989;-80
2022/11/20 10:22:12;;;;;;;15.75;11.32;;;;;;;;;;5084595;27;20423;-81
2022/11/20 10:24:42;;;;;;;15.63;10.45;;;;;;;;;;5098401;27;20421;-81
2022/11/20 10:27:27;;;;;;;17.00;10.52;;;;;;;;;;5084888;28;20425;-81
2022/11/20 10:30:08;;;;;;;16.58;10.05;;;;;;;;;;5088347;28;20450;-80
2022/11/20 10:32:37;;;;;;;15.93;10.48;;;;;;;;;;5084670;28;20444;-81
2022/11/20 10:35:21;;;;;;;14.82;9.80;;;;;;;;;;5085140;27;20449;-81
2022/11/20 10:37:50;;;;;;;17.80;9.70;;;;;;;;;;5104156;28;20430;-81
2022/11/20 10:40:26;;;;;;;15.77;9.85;;;;;;;;;;5063076;28;20429;-80
2022/11/20 10:42:55;;;;;;;14.48;9.55;;;;;;;;;;5044157;28;20413;-80
2022/11/20 10:45:25;;;;;;;17.00;9.90;;;;;;;;;;5080567;28;20426;-80
2022/11/20 10:48:08;;;;;;;14.55;10.20;;;;;;;;;;5067647;28;20435;-79
2022/11/20 10:50:35;;;;;;;15.23;9.70;;;;;;;;;;5057738;28;20433;-82
2022/11/20 10:53:17;;;;;;;15.57;10.57;;;;;;;;;;5075018;28;20507;-82
2022/11/20 10:55:45;;;;;;;14.75;9.60;;;;;;;;;;5063260;28;20420;-82
2022/11/20 10:58:26;;;;;;;14.18;9.52;;;;;;;;;;5065202;28;20835;-83
2022/11/20 11:00:52;;;;;;;13.55;9.02;;;;;;;;;;5062942;28;20483;-82
2022/11/20 11:03:27;;;;;;;15.27;9.75;;;;;;;;;;5043767;28;20437;-82
2022/11/20 11:06:11;;;;;;;15.13;9.95;;;;;;;;;;5058150;28;20445;-80
2022/11/20 11:08:38;;;;;;;15.98;9.63;;;;;;;;;;5065809;28;20454;-81
2022/11/20 11:11:10;;;;;;;12.13;8.45;;;;;;;;;;5045031;28;20429;-81
2022/11/20 11:13:39;;;;;;;11.25;8.00;;;;;;;;;;5063107;28;20436;-82
2022/11/20 11:16:22;;;;;;;12.73;8.65;;;;;;;;;;5045678;28;20443;-79
2022/11/20 11:18:52;;;;;;;11.55;8.60;;;;;;;;;;5035794;28;20428;-80
2022/11/20 11:21:27;;;;;;;11.63;7.57;;;;;;;;;;5038637;28;21020;-81
2022/11/20 11:24:01;;;;;;;11.02;7.85;;;;;;;;;;5028605;28;20418;-81
2022/11/20 11:26:27;;;;;;;9.88;7.10;;;;;;;;;;5045755;28;20404;-80
2022/11/20 11:29:00;;;;;;;11.23;7.80;;;;;;;;;;5063757;28;20435;-80
2022/11/20 11:31:27;;;;;;;11.68;7.15;;;;;;;;;;5039346;28;20421;-80
2022/11/20 11:34:04;;;;;;;10.27;6.45;;;;;;;;;;5057796;28;20434;-80
2022/11/20 11:36:30;;;;;;;9.10;6.70;;;;;;;;;;5049148;28;20424;-81
2022/11/20 11:38:56;;;;;;;8.95;6.20;;;;;;;;;;5058936;28;20456;-80
2022/11/20 11:41:28;;;;;;;10.38;6.68;;;;;;;;;;5046399;28;20511;-80
2022/11/20 11:46:44;;;;;;;9.48;5.85;;;;;;;;;;5068256;28;20422;-81
2022/11/20 11:49:11;;;;;;;8.73;6.00;;;;;;;;;;5048835;28;20421;-80
2022/11/20 11:52:07;;;;;;;9.25;6.10;;;;;;;;;;5055031;28;20961;-81
2022/11/20 11:54:33;;;;;;;8.85;6.28;;;;;;;;;;5035473;28;20433;-81
2022/11/20 11:57:01;;;;;;;9.65;6.40;;;;;;;;;;5058740;28;20433;-80
2022/11/20 11:59:29;;;;;;;9.80;6.50;;;;;;;;;;5056125;28;20537;-80
2022/11/20 12:01:58;;;;;;;8.80;6.28;;;;;;;;;;5051794;28;20419;-82
2022/11/20 12:04:34;;;;;;;9.85;6.47;;;;;;;;;;5058043;28;20768;-81
2022/11/20 12:07:04;;;;;;;8.75;6.85;;;;;;;;;;5064168;28;20422;-81
2022/11/20 12:09:35;;;;;;;14.18;9.25;;;;;;;;;;5053003;28;20418;-81
2022/11/20 12:12:08;;;;;;;13.43;8.50;;;;;;;;;;5061501;28;20425;-81
2022/11/20 12:14:37;;;;;;;17.00;10.80;;;;;;;;;;5068294;28;20421;-81
2022/11/20 12:17:03;;;;;;;22.33;13.85;;;;;;;;;;5046280;28;20415;-81
2022/11/20 12:19:31;;;;;;;20.47;13.10;;;;;;;;;;5055582;28;20504;-80
2022/11/20 12:22:03;;;;;;;10.00;7.10;;;;;;;;;;5052346;28;20968;-80
2022/11/20 12:24:32;;;;;;;10.77;7.72;;;;;;;;;;5058569;28;20511;-81
2022/11/20 12:26:59;;;;;;;12.57;8.55;;;;;;;;;;5040330;28;20416;-81
2022/11/20 12:29:25;;;;;;;12.45;7.60;;;;;;;;;;5068071;28;20448;-81
2022/11/20 12:32:07;;;;;;;12.98;8.18;;;;;;;;;;5045723;28;20475;-82
2022/11/20 12:34:45;;;;;;;13.32;9.02;;;;;;;;;;5056827;28;20425;-81
2022/11/20 12:37:29;;;;;;;12.45;8.05;;;;;;;;;;5046745;28;20933;-82
2022/11/20 12:39:57;;;;;;;11.43;7.73;;;;;;;;;;5059671;28;20469;-81
2022/11/20 12:45:18;;;;;;;11.65;7.72;;;;;;;;;;5069499;28;20410;-82
2022/11/20 12:47:47;;;;;;;10.93;8.10;;;;;;;;;;5054525;28;20425;-81
2022/11/20 12:50:18;;;;;;;11.02;8.32;;;;;;;;;;5037847;28;20409;-81
2022/11/20 12:52:51;;;;;;;11.07;6.97;;;;;;;;;;5048034;28;20411;-80
2022/11/20 12:55:21;;;;;;;10.95;8.20;;;;;;;;;;5059178;28;20455;-82
2022/11/20 12:57:53;;;;;;;12.15;7.82;;;;;;;;;;5057584;28;20456;-80
2022/11/20 13:00:21;;;;;;;9.00;6.78;;;;;;;;;;5058601;28;20492;-80
2022/11/20 13:03:02;;;;;;;9.93;6.60;;;;;;;;;;5052988;28;20440;-82
2022/11/20 13:05:28;;;;;;;10.88;7.63;;;;;;;;;;5056869;28;20920;-79
2022/11/20 13:07:54;;;;;;;8.98;6.50;;;;;;;;;;5047623;28;20423;-82
2022/11/20 13:10:23;;;;;;;10.03;5.77;;;;;;;;;;5048867;28;20429;-81
2022/11/20 13:13:01;;;;;;;8.38;5.80;;;;;;;;;;5069570;28;20437;-80
2022/11/20 13:15:49;;;;;;;9.85;6.35;;;;;;;;;;5047692;28;21001;-82
2022/11/20 13:18:15;;;;;;;11.18;6.60;;;;;;;;;;5062237;28;20430;-81
2022/11/20 13:20:43;;;;;;;9.88;6.40;;;;;;;;;;5039840;28;20422;-83
2022/11/20 13:23:09;;;;;;;8.77;6.03;;;;;;;;;;5058574;28;20460;-81
2022/11/20 13:25:37;;;;;;;8.32;5.95;;;;;;;;;;5054387;28;20407;-82
2022/11/20 13:28:26;;;;;;;8.67;6.27;;;;;;;;;;5049320;28;20932;-80
2022/11/20 13:30:53;;;;;;;8.93;6.00;;;;;;;;;;5044931;28;20945;-78
2022/11/20 13:33:24;;;;;;;8.77;5.80;;;;;;;;;;5051977;28;20429;-80
2022/11/20 13:35:58;;;;;;;8.27;5.93;;;;;;;;;;5057614;28;20431;-81
2022/11/20 13:38:24;;;;;;;9.18;5.80;;;;;;;;;;5059197;28;21044;-80
2022/11/20 13:41:27;;;;;;;8.55;5.95;;;;;;;;;;5060977;28;20757;-81
2022/11/20 13:43:49;;;;;;;8.97;6.03;;;;;;;;;;5047378;28;20411;-80
2022/11/20 13:46:15;;;;;;;10.40;6.72;;;;;;;;;;5047938;28;20420;-80
2022/11/20 13:48:41;;;;;;;10.27;6.70;;;;;;;;;;5047737;28;20433;-81
2022/11/20 13:51:07;;;;;;;11.85;7.13;;;;;;;;;;5054618;28;20421;-80
2022/11/20 13:53:49;;;;;;;9.80;6.87;;;;;;;;;;5050304;28;20493;-80
2022/11/20 13:56:22;;;;;;;9.93;6.93;;;;;;;;;;5033321;28;20502;-81
2022/11/20 13:58:48;;;;;;;10.77;6.90;;;;;;;;;;5052426;28;20425;-80
2022/11/20 14:01:16;;;;;;;9.60;6.72;;;;;;;;;;5048858;28;20459;-81
2022/11/20 14:03:43;;;;;;;10.07;6.20;;;;;;;;;;5050539;28;20824;-82
2022/11/20 14:06:22;;;;;;;9.57;6.40;;;;;;;;;;5054452;28;20506;-73
2022/11/20 14:08:48;;;;;;;9.80;6.93;;;;;;;;;;5058367;28;20996;-81
2022/11/20 14:11:19;;;;;;;10.32;6.75;;;;;;;;;;5059450;28;20432;-81
2022/11/20 14:13:57;;;;;;;11.05;7.47;;;;;;;;;;5049696;28;20423;-83
2022/11/20 14:16:24;;;;;;;10.70;6.97;;;;;;;;;;5033616;28;20505;-81
2022/11/20 14:18:51;;;;;;;10.98;7.10;;;;;;;;;;5052917;28;20774;-79
2022/11/20 14:21:24;;;;;;;9.15;7.00;;;;;;;;;;5048413;28;20425;-81
2022/11/20 14:23:52;;;;;;;10.23;7.20;;;;;;;;;;5046158;28;20488;-81
2022/11/20 14:26:22;;;;;;;13.13;8.85;;;;;;;;;;5038019;28;20429;-80
2022/11/20 14:28:51;;;;;;;12.73;8.32;;;;;;;;;;5067724;28;20448;-80
2022/11/20 14:31:21;;;;;;;11.48;8.27;;;;;;;;;;5056931;28;20429;-80
2022/11/20 14:33:48;;;;;;;11.48;7.75;;;;;;;;;;5054655;28;20425;-79
2022/11/20 14:36:19;;;;;;;13.07;7.93;;;;;;;;;;5047613;28;20438;-80
2022/11/20 14:38:45;;;;;;;14.00;8.68;;;;;;;;;;5046156;28;20429;-80
2022/11/20 14:41:19;;;;;;;12.65;8.52;;;;;;;;;;5040896;28;20422;-81
2022/11/20 14:43:51;;;;;;;12.00;8.25;;;;;;;;;;5082165;28;20414;-81
2022/11/20 14:46:18;;;;;;;12.57;8.43;;;;;;;;;;5067533;28;20424;-80